This is the latest recevied weather packets stored in our database for station/object GCLP. If no packets are shown the sender has not sent any weather packets the latest 10 day(s).
| Time | Temp. | Humidity | Pressure | Rain* | Wind** | Luminosity | Snow |
|---|---|---|---|---|---|---|---|
| 1777216402 | 22.78° C | 56% | 1014 hPa | - | - | - | - |
| 1777215804 | 22.78° C | 49% | 1013 hPa | - | - | - | - |
| 1777215202 | 22.78° C | 49% | 1013 hPa | - | - | - | - |
| 1777214602 | 22.78° C | 49% | 1013 hPa | - | - | - | - |
| 1777214001 | 22.78° C | 53% | 1014 hPa | - | - | - | - |
| 1777213404 | 22.78° C | 53% | 1014 hPa | - | - | - | - |
| 1777212802 | 22.78° C | 53% | 1014 hPa | - | - | - | - |
| 1777212204 | 23.89° C | 47% | 1012 hPa | - | - | - | - |
| 1777211604 | 23.89° C | 47% | 1012 hPa | - | - | - | - |
| 1777211001 | 23.89° C | 47% | 1012 hPa | - | - | - | - |
| 1777210400 | 22.78° C | 60% | 1014 hPa | - | - | - | - |
| 1777209802 | 22.78° C | 60% | 1014 hPa | - | - | - | - |
| 1777209201 | 22.78° C | 60% | 1014 hPa | - | - | - | - |
| 1777208601 | 21.67° C | 53% | 1012 hPa | - | - | - | - |
| 1777208002 | 21.67° C | 53% | 1012 hPa | - | - | - | - |
| 1777207400 | 21.67° C | 53% | 1012 hPa | - | - | - | - |
| 1777206801 | 21.67° C | 49% | 1012 hPa | - | - | - | - |
| 1777206203 | 21.67° C | 49% | 1012 hPa | - | - | - | - |
| 1777205602 | 21.67° C | 49% | 1012 hPa | - | - | - | - |
| 1777205003 | - | - | 1013 hPa | - | - | - | - |
| 1777204403 | - | - | 1013 hPa | - | - | - | - |
| 1777203803 | - | - | 1013 hPa | - | - | - | - |
| 1777203201 | 20.56° C | 52% | 1015 hPa | - | - | - | - |
| 1777202602 | 20.56° C | 52% | 1015 hPa | - | - | - | - |
| 1777202004 | 20.56° C | 52% | 1015 hPa | - | - | - | - |
* Rain since midnight (hover to see other rain measurements)
** Current wind speed in m/s (hover to see current wind gust speed)